sensor_id;sensor_type;location;lat;lon;timestamp;temperature;humidity
51615;DHT22;37695;52.960;6.188;2023-04-30T00:01:56;7.10;99.90
51615;DHT22;37695;52.960;6.188;2023-04-30T00:04:22;7.00;99.90
51615;DHT22;37695;52.960;6.188;2023-04-30T00:06:48;7.00;99.90
51615;DHT22;37695;52.960;6.188;2023-04-30T00:09:14;7.10;99.90
51615;DHT22;37695;52.960;6.188;2023-04-30T00:11:39;7.10;99.90
51615;DHT22;37695;52.960;6.188;2023-04-30T00:14:05;7.10;99.90
51615;DHT22;37695;52.960;6.188;2023-04-30T00:16:30;7.10;99.90
51615;DHT22;37695;52.960;6.188;2023-04-30T00:18:56;7.10;99.90
51615;DHT22;37695;52.960;6.188;2023-04-30T00:21:21;6.90;99.90
51615;DHT22;37695;52.960;6.188;2023-04-30T00:23:47;6.80;99.90
51615;DHT22;37695;52.960;6.188;2023-04-30T00:26:12;6.70;99.90
51615;DHT22;37695;52.960;6.188;2023-04-30T00:28:38;6.70;99.90
51615;DHT22;37695;52.960;6.188;2023-04-30T00:31:04;6.70;99.90
51615;DHT22;37695;52.960;6.188;2023-04-30T00:33:33;6.50;99.90
51615;DHT22;37695;52.960;6.188;2023-04-30T00:35:59;6.40;99.90
51615;DHT22;37695;52.960;6.188;2023-04-30T00:38:25;6.30;99.90
51615;DHT22;37695;52.960;6.188;2023-04-30T00:40:51;6.30;99.90
51615;DHT22;37695;52.960;6.188;2023-04-30T00:43:17;6.30;99.90
51615;DHT22;37695;52.960;6.188;2023-04-30T00:45:42;6.30;99.90
51615;DHT22;37695;52.960;6.188;2023-04-30T00:48:08;6.40;99.90
51615;DHT22;37695;52.960;6.188;2023-04-30T00:50:37;6.40;99.90
51615;DHT22;37695;52.960;6.188;2023-04-30T00:53:03;6.40;99.90
51615;DHT22;37695;52.960;6.188;2023-04-30T00:55:28;6.30;99.90
51615;DHT22;37695;52.960;6.188;2023-04-30T00:57:54;6.40;99.90
51615;DHT22;37695;52.960;6.188;2023-04-30T01:00:21;6.40;99.90
51615;DHT22;37695;52.960;6.188;2023-04-30T01:02:47;6.30;99.90
51615;DHT22;37695;52.960;6.188;2023-04-30T01:05:13;6.30;99.90
51615;DHT22;37695;52.960;6.188;2023-04-30T01:07:39;6.30;99.90
51615;DHT22;37695;52.960;6.188;2023-04-30T01:10:12;6.30;99.90
51615;DHT22;37695;52.960;6.188;2023-04-30T01:16:14;6.20;99.90
51615;DHT22;37695;52.960;6.188;2023-04-30T01:18:47;6.20;99.90
51615;DHT22;37695;52.960;6.188;2023-04-30T01:21:14;6.20;99.90
51615;DHT22;37695;52.960;6.188;2023-04-30T01:24:08;6.10;99.90
51615;DHT22;37695;52.960;6.188;2023-04-30T01:29:43;6.10;99.90
51615;DHT22;37695;52.960;6.188;2023-04-30T01:32:09;6.00;99.90
51615;DHT22;37695;52.960;6.188;2023-04-30T01:34:35;6.00;99.90
51615;DHT22;37695;52.960;6.188;2023-04-30T01:42:20;5.80;99.90
51615;DHT22;37695;52.960;6.188;2023-04-30T01:45:21;5.80;99.90
51615;DHT22;37695;52.960;6.188;2023-04-30T01:50:36;5.70;99.90
51615;DHT22;37695;52.960;6.188;2023-04-30T01:53:06;5.70;99.90
51615;DHT22;37695;52.960;6.188;2023-04-30T01:58:17;5.60;99.90
51615;DHT22;37695;52.960;6.188;2023-04-30T02:00:43;5.60;99.90
51615;DHT22;37695;52.960;6.188;2023-04-30T02:03:09;5.60;99.90
51615;DHT22;37695;52.960;6.188;2023-04-30T02:05:35;5.60;99.90
51615;DHT22;37695;52.960;6.188;2023-04-30T02:08:00;5.60;99.90
51615;DHT22;37695;52.960;6.188;2023-04-30T02:10:26;5.70;99.90
51615;DHT22;37695;52.960;6.188;2023-04-30T02:12:53;5.70;99.90
51615;DHT22;37695;52.960;6.188;2023-04-30T02:15:19;5.70;99.90
51615;DHT22;37695;52.960;6.188;2023-04-30T02:17:44;5.60;99.90
51615;DHT22;37695;52.960;6.188;2023-04-30T02:20:10;5.60;99.90
51615;DHT22;37695;52.960;6.188;2023-04-30T02:22:36;5.60;99.90
51615;DHT22;37695;52.960;6.188;2023-04-30T02:25:02;5.60;99.90
51615;DHT22;37695;52.960;6.188;2023-04-30T02:27:30;5.70;99.90
51615;DHT22;37695;52.960;6.188;2023-04-30T02:29:56;5.60;99.90
51615;DHT22;37695;52.960;6.188;2023-04-30T02:32:22;5.60;99.90
51615;DHT22;37695;52.960;6.188;2023-04-30T02:34:48;5.60;99.90
51615;DHT22;37695;52.960;6.188;2023-04-30T02:37:14;5.70;99.90
51615;DHT22;37695;52.960;6.188;2023-04-30T02:39:39;5.80;99.90
51615;DHT22;37695;52.960;6.188;2023-04-30T02:42:06;5.80;99.90
51615;DHT22;37695;52.960;6.188;2023-04-30T02:44:32;5.70;99.90
51615;DHT22;37695;52.960;6.188;2023-04-30T02:46:58;5.80;99.90
51615;DHT22;37695;52.960;6.188;2023-04-30T02:49:24;5.80;99.90
51615;DHT22;37695;52.960;6.188;2023-04-30T02:51:51;5.80;99.90
51615;DHT22;37695;52.960;6.188;2023-04-30T02:54:16;5.80;99.90
51615;DHT22;37695;52.960;6.188;2023-04-30T02:56:42;5.80;99.90
51615;DHT22;37695;52.960;6.188;2023-04-30T02:59:08;5.90;99.90
51615;DHT22;37695;52.960;6.188;2023-04-30T03:01:34;6.00;99.90
51615;DHT22;37695;52.960;6.188;2023-04-30T03:04:00;6.00;99.90
51615;DHT22;37695;52.960;6.188;2023-04-30T03:06:28;6.10;99.90
51615;DHT22;37695;52.960;6.188;2023-04-30T03:08:53;6.10;99.90
51615;DHT22;37695;52.960;6.188;2023-04-30T03:11:19;6.00;99.90
51615;DHT22;37695;52.960;6.188;2023-04-30T03:13:47;5.90;99.90
51615;DHT22;37695;52.960;6.188;2023-04-30T03:16:16;5.80;99.90
51615;DHT22;37695;52.960;6.188;2023-04-30T03:18:42;5.80;99.90
51615;DHT22;37695;52.960;6.188;2023-04-30T03:21:08;5.70;99.90
51615;DHT22;37695;52.960;6.188;2023-04-30T03:23:34;5.70;99.90
51615;DHT22;37695;52.960;6.188;2023-04-30T03:26:00;5.70;99.90
51615;DHT22;37695;52.960;6.188;2023-04-30T03:28:25;5.80;99.90
51615;DHT22;37695;52.960;6.188;2023-04-30T03:30:51;5.80;99.90
51615;DHT22;37695;52.960;6.188;2023-04-30T03:33:17;5.80;99.90
51615;DHT22;37695;52.960;6.188;2023-04-30T03:35:42;5.70;99.90
51615;DHT22;37695;52.960;6.188;2023-04-30T03:38:08;5.70;99.90
51615;DHT22;37695;52.960;6.188;2023-04-30T03:40:34;5.70;99.90
51615;DHT22;37695;52.960;6.188;2023-04-30T03:42:59;5.60;99.90
51615;DHT22;37695;52.960;6.188;2023-04-30T03:45:25;5.50;99.90
51615;DHT22;37695;52.960;6.188;2023-04-30T03:47:51;5.50;99.90
51615;DHT22;37695;52.960;6.188;2023-04-30T03:50:17;5.50;99.90
51615;DHT22;37695;52.960;6.188;2023-04-30T03:52:43;5.50;99.90
51615;DHT22;37695;52.960;6.188;2023-04-30T03:55:09;5.40;99.90
51615;DHT22;37695;52.960;6.188;2023-04-30T03:57:35;5.40;99.90
51615;DHT22;37695;52.960;6.188;2023-04-30T04:00:01;5.40;99.90
51615;DHT22;37695;52.960;6.188;2023-04-30T04:02:27;5.40;99.90
51615;DHT22;37695;52.960;6.188;2023-04-30T04:04:52;5.40;99.90
51615;DHT22;37695;52.960;6.188;2023-04-30T04:07:18;5.40;99.90
51615;DHT22;37695;52.960;6.188;2023-04-30T04:09:43;5.30;99.90
51615;DHT22;37695;52.960;6.188;2023-04-30T04:12:09;5.30;99.90
51615;DHT22;37695;52.960;6.188;2023-04-30T04:14:34;5.30;99.90
51615;DHT22;37695;52.960;6.188;2023-04-30T04:17:00;5.30;99.90
51615;DHT22;37695;52.960;6.188;2023-04-30T04:19:26;5.30;99.90
51615;DHT22;37695;52.960;6.188;2023-04-30T04:21:52;5.20;99.90
51615;DHT22;37695;52.960;6.188;2023-04-30T04:24:18;5.10;99.90
51615;DHT22;37695;52.960;6.188;2023-04-30T04:26:44;5.20;99.90
51615;DHT22;37695;52.960;6.188;2023-04-30T04:29:10;5.10;99.90
51615;DHT22;37695;52.960;6.188;2023-04-30T04:31:36;5.10;99.90
51615;DHT22;37695;52.960;6.188;2023-04-30T04:34:04;5.00;99.90
51615;DHT22;37695;52.960;6.188;2023-04-30T04:36:30;5.00;99.90
51615;DHT22;37695;52.960;6.188;2023-04-30T04:38:57;5.00;99.90
51615;DHT22;37695;52.960;6.188;2023-04-30T04:41:30;5.00;99.90
51615;DHT22;37695;52.960;6.188;2023-04-30T04:44:00;5.00;99.90
51615;DHT22;37695;52.960;6.188;2023-04-30T04:46:30;5.10;99.90
51615;DHT22;37695;52.960;6.188;2023-04-30T04:48:56;5.10;99.90
51615;DHT22;37695;52.960;6.188;2023-04-30T04:51:22;5.00;99.90
51615;DHT22;37695;52.960;6.188;2023-04-30T04:53:48;5.10;99.90
51615;DHT22;37695;52.960;6.188;2023-04-30T04:56:14;5.10;99.90
51615;DHT22;37695;52.960;6.188;2023-04-30T04:58:40;5.20;99.90
51615;DHT22;37695;52.960;6.188;2023-04-30T05:01:06;5.20;99.90
51615;DHT22;37695;52.960;6.188;2023-04-30T05:03:33;5.20;99.90
51615;DHT22;37695;52.960;6.188;2023-04-30T05:06:01;5.30;99.90
51615;DHT22;37695;52.960;6.188;2023-04-30T05:08:27;5.30;99.90
51615;DHT22;37695;52.960;6.188;2023-04-30T05:10:52;5.30;99.90
51615;DHT22;37695;52.960;6.188;2023-04-30T05:13:18;5.40;99.90
51615;DHT22;37695;52.960;6.188;2023-04-30T05:15:43;5.40;99.90
51615;DHT22;37695;52.960;6.188;2023-04-30T05:18:09;5.50;99.90
51615;DHT22;37695;52.960;6.188;2023-04-30T05:20:35;5.50;99.90
51615;DHT22;37695;52.960;6.188;2023-04-30T05:23:00;5.50;99.90
51615;DHT22;37695;52.960;6.188;2023-04-30T05:25:26;5.50;99.90
51615;DHT22;37695;52.960;6.188;2023-04-30T05:27:51;5.50;99.90
51615;DHT22;37695;52.960;6.188;2023-04-30T05:30:17;5.60;99.90
51615;DHT22;37695;52.960;6.188;2023-04-30T05:32:43;5.60;99.90
51615;DHT22;37695;52.960;6.188;2023-04-30T05:35:10;5.70;99.90
51615;DHT22;37695;52.960;6.188;2023-04-30T05:37:36;5.80;99.90
51615;DHT22;37695;52.960;6.188;2023-04-30T05:40:01;5.90;99.90
51615;DHT22;37695;52.960;6.188;2023-04-30T05:42:27;5.90;99.90
51615;DHT22;37695;52.960;6.188;2023-04-30T05:44:53;6.00;99.90
51615;DHT22;37695;52.960;6.188;2023-04-30T05:47:19;6.10;99.90
51615;DHT22;37695;52.960;6.188;2023-04-30T05:49:44;6.20;99.90
51615;DHT22;37695;52.960;6.188;2023-04-30T05:52:10;6.30;99.90
51615;DHT22;37695;52.960;6.188;2023-04-30T05:54:36;6.40;99.90
51615;DHT22;37695;52.960;6.188;2023-04-30T05:57:01;6.50;99.90
51615;DHT22;37695;52.960;6.188;2023-04-30T05:59:27;6.70;99.90
51615;DHT22;37695;52.960;6.188;2023-04-30T06:01:52;6.80;99.90
51615;DHT22;37695;52.960;6.188;2023-04-30T06:04:18;6.90;99.90
51615;DHT22;37695;52.960;6.188;2023-04-30T06:06:44;6.90;99.90
51615;DHT22;37695;52.960;6.188;2023-04-30T06:09:09;7.00;99.90
51615;DHT22;37695;52.960;6.188;2023-04-30T06:11:35;7.00;99.90
51615;DHT22;37695;52.960;6.188;2023-04-30T06:14:02;7.10;99.90
51615;DHT22;37695;52.960;6.188;2023-04-30T06:16:28;7.30;99.90
51615;DHT22;37695;52.960;6.188;2023-04-30T06:18:54;7.40;99.90
51615;DHT22;37695;52.960;6.188;2023-04-30T06:21:20;7.50;99.90
51615;DHT22;37695;52.960;6.188;2023-04-30T06:23:46;7.50;99.90
51615;DHT22;37695;52.960;6.188;2023-04-30T06:26:11;7.60;99.90
51615;DHT22;37695;52.960;6.188;2023-04-30T06:28:39;7.70;99.90
51615;DHT22;37695;52.960;6.188;2023-04-30T06:31:05;7.80;99.90
51615;DHT22;37695;52.960;6.188;2023-04-30T06:33:30;7.90;99.90
51615;DHT22;37695;52.960;6.188;2023-04-30T06:35:56;8.00;99.90
51615;DHT22;37695;52.960;6.188;2023-04-30T06:38:21;8.20;99.90
51615;DHT22;37695;52.960;6.188;2023-04-30T06:40:47;8.30;99.90
51615;DHT22;37695;52.960;6.188;2023-04-30T06:43:12;8.40;99.90
51615;DHT22;37695;52.960;6.188;2023-04-30T06:45:38;8.50;99.90
51615;DHT22;37695;52.960;6.188;2023-04-30T06:48:04;8.60;99.90
51615;DHT22;37695;52.960;6.188;2023-04-30T06:50:30;8.70;99.90
51615;DHT22;37695;52.960;6.188;2023-04-30T06:52:55;8.80;99.90
51615;DHT22;37695;52.960;6.188;2023-04-30T06:55:21;9.00;99.90
51615;DHT22;37695;52.960;6.188;2023-04-30T06:57:47;9.00;99.90
51615;DHT22;37695;52.960;6.188;2023-04-30T07:00:12;9.20;99.90
51615;DHT22;37695;52.960;6.188;2023-04-30T07:02:40;9.30;99.90
51615;DHT22;37695;52.960;6.188;2023-04-30T07:05:05;9.30;99.90
51615;DHT22;37695;52.960;6.188;2023-04-30T07:07:31;9.50;99.90
51615;DHT22;37695;52.960;6.188;2023-04-30T07:09:57;9.60;99.90
51615;DHT22;37695;52.960;6.188;2023-04-30T07:12:22;9.70;99.90
51615;DHT22;37695;52.960;6.188;2023-04-30T07:14:48;9.70;99.90
51615;DHT22;37695;52.960;6.188;2023-04-30T07:17:14;9.80;99.90
51615;DHT22;37695;52.960;6.188;2023-04-30T07:19:39;9.90;99.90
51615;DHT22;37695;52.960;6.188;2023-04-30T07:22:05;10.00;99.90
51615;DHT22;37695;52.960;6.188;2023-04-30T07:24:30;10.10;99.90
51615;DHT22;37695;52.960;6.188;2023-04-30T07:26:56;10.20;99.90
51615;DHT22;37695;52.960;6.188;2023-04-30T07:29:23;10.20;99.90
51615;DHT22;37695;52.960;6.188;2023-04-30T07:31:48;10.30;99.90
51615;DHT22;37695;52.960;6.188;2023-04-30T07:34:14;10.50;99.90
51615;DHT22;37695;52.960;6.188;2023-04-30T07:36:39;10.70;99.90
51615;DHT22;37695;52.960;6.188;2023-04-30T07:39:05;10.80;99.90
51615;DHT22;37695;52.960;6.188;2023-04-30T07:41:32;10.90;99.90
51615;DHT22;37695;52.960;6.188;2023-04-30T07:43:57;10.90;99.90
51615;DHT22;37695;52.960;6.188;2023-04-30T07:46:24;11.00;99.90
51615;DHT22;37695;52.960;6.188;2023-04-30T07:48:50;11.00;99.90
51615;DHT22;37695;52.960;6.188;2023-04-30T07:51:15;11.10;99.90
51615;DHT22;37695;52.960;6.188;2023-04-30T07:53:41;11.20;99.90
51615;DHT22;37695;52.960;6.188;2023-04-30T07:56:07;11.30;99.90
51615;DHT22;37695;52.960;6.188;2023-04-30T07:58:33;11.30;99.90
51615;DHT22;37695;52.960;6.188;2023-04-30T08:00:59;11.40;99.90
51615;DHT22;37695;52.960;6.188;2023-04-30T08:03:25;11.50;99.90
51615;DHT22;37695;52.960;6.188;2023-04-30T08:05:51;11.50;99.90
51615;DHT22;37695;52.960;6.188;2023-04-30T08:08:17;11.50;99.90
51615;DHT22;37695;52.960;6.188;2023-04-30T08:10:42;11.40;99.90
51615;DHT22;37695;52.960;6.188;2023-04-30T08:13:08;11.50;99.90
51615;DHT22;37695;52.960;6.188;2023-04-30T08:15:33;11.70;99.90
51615;DHT22;37695;52.960;6.188;2023-04-30T08:17:59;11.80;99.90
51615;DHT22;37695;52.960;6.188;2023-04-30T08:20:25;11.80;99.90
51615;DHT22;37695;52.960;6.188;2023-04-30T08:22:50;11.90;99.90
51615;DHT22;37695;52.960;6.188;2023-04-30T08:25:16;11.90;99.90
51615;DHT22;37695;52.960;6.188;2023-04-30T08:27:41;12.00;99.90
51615;DHT22;37695;52.960;6.188;2023-04-30T08:30:07;12.10;99.90
51615;DHT22;37695;52.960;6.188;2023-04-30T08:32:36;12.20;99.90
51615;DHT22;37695;52.960;6.188;2023-04-30T08:35:05;12.30;99.90
51615;DHT22;37695;52.960;6.188;2023-04-30T08:37:32;12.30;99.90
51615;DHT22;37695;52.960;6.188;2023-04-30T08:39:57;12.40;99.90
51615;DHT22;37695;52.960;6.188;2023-04-30T08:42:35;12.30;99.90
51615;DHT22;37695;52.960;6.188;2023-04-30T08:45:02;12.40;99.90
51615;DHT22;37695;52.960;6.188;2023-04-30T08:47:28;12.60;99.90
51615;DHT22;37695;52.960;6.188;2023-04-30T08:49:54;12.70;99.90
51615;DHT22;37695;52.960;6.188;2023-04-30T08:52:21;12.60;99.90
51615;DHT22;37695;52.960;6.188;2023-04-30T08:54:47;12.80;99.90
51615;DHT22;37695;52.960;6.188;2023-04-30T08:57:13;12.80;99.90
51615;DHT22;37695;52.960;6.188;2023-04-30T08:59:38;12.90;99.90
51615;DHT22;37695;52.960;6.188;2023-04-30T09:02:04;13.00;99.90
51615;DHT22;37695;52.960;6.188;2023-04-30T09:04:30;12.90;99.90
51615;DHT22;37695;52.960;6.188;2023-04-30T09:06:56;13.10;99.90
51615;DHT22;37695;52.960;6.188;2023-04-30T09:09:28;13.10;99.90
51615;DHT22;37695;52.960;6.188;2023-04-30T09:12:15;13.70;99.90
51615;DHT22;37695;52.960;6.188;2023-04-30T09:14:57;13.30;99.90
51615;DHT22;37695;52.960;6.188;2023-04-30T09:17:24;13.40;99.90
51615;DHT22;37695;52.960;6.188;2023-04-30T09:19:51;13.40;99.90
51615;DHT22;37695;52.960;6.188;2023-04-30T09:22:21;13.40;99.90
51615;DHT22;37695;52.960;6.188;2023-04-30T09:24:49;13.40;99.90
51615;DHT22;37695;52.960;6.188;2023-04-30T09:27:20;13.50;99.90
51615;DHT22;37695;52.960;6.188;2023-04-30T09:29:45;13.60;99.90
51615;DHT22;37695;52.960;6.188;2023-04-30T09:32:11;13.70;99.90
51615;DHT22;37695;52.960;6.188;2023-04-30T09:34:38;13.70;99.90
51615;DHT22;37695;52.960;6.188;2023-04-30T09:37:04;13.80;99.90
51615;DHT22;37695;52.960;6.188;2023-04-30T09:39:29;13.80;99.90
51615;DHT22;37695;52.960;6.188;2023-04-30T09:42:09;13.90;99.90
51615;DHT22;37695;52.960;6.188;2023-04-30T09:44:37;13.90;99.90
51615;DHT22;37695;52.960;6.188;2023-04-30T09:47:03;14.00;99.90
51615;DHT22;37695;52.960;6.188;2023-04-30T09:49:29;14.10;99.90
51615;DHT22;37695;52.960;6.188;2023-04-30T09:52:00;14.20;99.90
51615;DHT22;37695;52.960;6.188;2023-04-30T09:54:28;14.30;99.90
51615;DHT22;37695;52.960;6.188;2023-04-30T09:56:54;14.20;99.90
51615;DHT22;37695;52.960;6.188;2023-04-30T10:01:54;14.30;99.90
51615;DHT22;37695;52.960;6.188;2023-04-30T10:04:20;14.50;99.90
51615;DHT22;37695;52.960;6.188;2023-04-30T10:06:47;14.50;99.90
51615;DHT22;37695;52.960;6.188;2023-04-30T10:09:12;14.60;99.90
51615;DHT22;37695;52.960;6.188;2023-04-30T10:11:42;14.60;99.90
51615;DHT22;37695;52.960;6.188;2023-04-30T10:14:11;14.80;99.90
51615;DHT22;37695;52.960;6.188;2023-04-30T10:19:20;14.80;99.90
51615;DHT22;37695;52.960;6.188;2023-04-30T10:21:46;14.90;99.90
51615;DHT22;37695;52.960;6.188;2023-04-30T10:24:13;14.90;99.90
51615;DHT22;37695;52.960;6.188;2023-04-30T10:26:40;15.00;99.90
51615;DHT22;37695;52.960;6.188;2023-04-30T10:29:06;15.10;99.90
51615;DHT22;37695;52.960;6.188;2023-04-30T10:31:32;15.20;99.90
51615;DHT22;37695;52.960;6.188;2023-04-30T10:36:36;15.30;99.90
51615;DHT22;37695;52.960;6.188;2023-04-30T10:39:04;15.40;99.90
51615;DHT22;37695;52.960;6.188;2023-04-30T10:41:30;15.50;99.90
51615;DHT22;37695;52.960;6.188;2023-04-30T10:43:57;15.70;99.90
51615;DHT22;37695;52.960;6.188;2023-04-30T10:46:25;15.80;99.90
51615;DHT22;37695;52.960;6.188;2023-04-30T10:48:53;15.80;99.90
51615;DHT22;37695;52.960;6.188;2023-04-30T10:51:22;15.90;99.90
51615;DHT22;37695;52.960;6.188;2023-04-30T10:53:51;16.10;99.90
51615;DHT22;37695;52.960;6.188;2023-04-30T10:56:32;16.00;99.90
51615;DHT22;37695;52.960;6.188;2023-04-30T10:58:59;16.00;99.90
51615;DHT22;37695;52.960;6.188;2023-04-30T11:01:28;16.10;99.90
51615;DHT22;37695;52.960;6.188;2023-04-30T11:04:07;16.10;99.90
51615;DHT22;37695;52.960;6.188;2023-04-30T11:09:42;16.30;99.90
51615;DHT22;37695;52.960;6.188;2023-04-30T11:12:34;16.30;99.40
51615;DHT22;37695;52.960;6.188;2023-04-30T11:15:11;16.30;99.90
51615;DHT22;37695;52.960;6.188;2023-04-30T11:17:37;16.30;99.50
51615;DHT22;37695;52.960;6.188;2023-04-30T11:20:03;16.40;99.80
51615;DHT22;37695;52.960;6.188;2023-04-30T11:22:29;16.40;99.80
51615;DHT22;37695;52.960;6.188;2023-04-30T11:25:10;16.50;99.90
51615;DHT22;37695;52.960;6.188;2023-04-30T11:27:40;16.70;99.90
51615;DHT22;37695;52.960;6.188;2023-04-30T11:30:16;16.70;99.90
51615;DHT22;37695;52.960;6.188;2023-04-30T11:32:44;16.90;99.80
51615;DHT22;37695;52.960;6.188;2023-04-30T11:35:12;16.70;99.90
51615;DHT22;37695;52.960;6.188;2023-04-30T11:37:40;16.70;99.80
51615;DHT22;37695;52.960;6.188;2023-04-30T11:40:08;16.90;99.50
51615;DHT22;37695;52.960;6.188;2023-04-30T11:42:36;17.00;99.10
51615;DHT22;37695;52.960;6.188;2023-04-30T11:45:11;17.00;98.90
51615;DHT22;37695;52.960;6.188;2023-04-30T11:47:47;17.30;98.50
51615;DHT22;37695;52.960;6.188;2023-04-30T11:50:15;17.10;98.50
51615;DHT22;37695;52.960;6.188;2023-04-30T11:52:43;17.30;98.80
51615;DHT22;37695;52.960;6.188;2023-04-30T11:55:18;17.30;98.60
51615;DHT22;37695;52.960;6.188;2023-04-30T11:57:46;17.40;98.80
51615;DHT22;37695;52.960;6.188;2023-04-30T12:00:15;17.50;98.70
51615;DHT22;37695;52.960;6.188;2023-04-30T12:02:42;17.50;99.10
51615;DHT22;37695;52.960;6.188;2023-04-30T12:05:17;17.70;98.90
51615;DHT22;37695;52.960;6.188;2023-04-30T12:07:45;17.70;98.30
51615;DHT22;37695;52.960;6.188;2023-04-30T12:10:11;17.50;97.70
51615;DHT22;37695;52.960;6.188;2023-04-30T12:12:37;17.50;98.80
51615;DHT22;37695;52.960;6.188;2023-04-30T12:15:17;17.60;98.80
51615;DHT22;37695;52.960;6.188;2023-04-30T12:17:44;17.70;98.00
51615;DHT22;37695;52.960;6.188;2023-04-30T12:20:12;17.60;98.30
51615;DHT22;37695;52.960;6.188;2023-04-30T12:22:40;17.80;98.70
51615;DHT22;37695;52.960;6.188;2023-04-30T12:25:12;17.90;98.50
51615;DHT22;37695;52.960;6.188;2023-04-30T12:27:45;17.80;97.80
51615;DHT22;37695;52.960;6.188;2023-04-30T12:30:12;17.80;98.20
51615;DHT22;37695;52.960;6.188;2023-04-30T12:32:46;17.90;98.40
51615;DHT22;37695;52.960;6.188;2023-04-30T12:35:15;17.80;97.40
51615;DHT22;37695;52.960;6.188;2023-04-30T12:37:44;17.80;98.30
51615;DHT22;37695;52.960;6.188;2023-04-30T12:40:11;17.80;98.00
51615;DHT22;37695;52.960;6.188;2023-04-30T12:42:37;17.80;98.20
51615;DHT22;37695;52.960;6.188;2023-04-30T12:45:03;17.90;98.00
51615;DHT22;37695;52.960;6.188;2023-04-30T12:47:29;17.90;98.10
51615;DHT22;37695;52.960;6.188;2023-04-30T12:49:55;17.80;97.70
51615;DHT22;37695;52.960;6.188;2023-04-30T12:52:25;17.90;98.30
51615;DHT22;37695;52.960;6.188;2023-04-30T12:54:51;17.90;98.10
51615;DHT22;37695;52.960;6.188;2023-04-30T12:57:17;18.00;98.20
51615;DHT22;37695;52.960;6.188;2023-04-30T13:02:14;17.90;97.40
51615;DHT22;37695;52.960;6.188;2023-04-30T13:04:41;18.00;97.40
51615;DHT22;37695;52.960;6.188;2023-04-30T13:07:07;18.10;97.30
51615;DHT22;37695;52.960;6.188;2023-04-30T13:09:33;18.10;97.10
51615;DHT22;37695;52.960;6.188;2023-04-30T13:11:59;18.30;97.40
51615;DHT22;37695;52.960;6.188;2023-04-30T13:14:25;18.20;97.30
51615;DHT22;37695;52.960;6.188;2023-04-30T13:16:51;18.30;97.10
51615;DHT22;37695;52.960;6.188;2023-04-30T13:19:18;18.20;96.80
51615;DHT22;37695;52.960;6.188;2023-04-30T13:21:44;18.30;96.80
51615;DHT22;37695;52.960;6.188;2023-04-30T13:24:09;18.40;96.60
51615;DHT22;37695;52.960;6.188;2023-04-30T13:26:35;18.30;96.20
51615;DHT22;37695;52.960;6.188;2023-04-30T13:29:01;18.40;96.60
51615;DHT22;37695;52.960;6.188;2023-04-30T13:31:28;18.50;96.70
51615;DHT22;37695;52.960;6.188;2023-04-30T13:33:54;18.60;96.50
51615;DHT22;37695;52.960;6.188;2023-04-30T13:36:20;18.30;96.00
51615;DHT22;37695;52.960;6.188;2023-04-30T13:38:46;18.20;96.50
51615;DHT22;37695;52.960;6.188;2023-04-30T13:41:12;18.10;96.70
51615;DHT22;37695;52.960;6.188;2023-04-30T13:43:37;18.20;96.70
51615;DHT22;37695;52.960;6.188;2023-04-30T13:46:04;18.20;96.80
51615;DHT22;37695;52.960;6.188;2023-04-30T13:48:29;18.20;96.70
51615;DHT22;37695;52.960;6.188;2023-04-30T13:50:55;18.00;96.70
51615;DHT22;37695;52.960;6.188;2023-04-30T13:53:21;18.00;96.70
51615;DHT22;37695;52.960;6.188;2023-04-30T13:55:47;18.00;96.70
51615;DHT22;37695;52.960;6.188;2023-04-30T13:58:12;18.20;96.30
51615;DHT22;37695;52.960;6.188;2023-04-30T14:00:38;18.30;96.60
51615;DHT22;37695;52.960;6.188;2023-04-30T14:03:03;18.40;96.50
51615;DHT22;37695;52.960;6.188;2023-04-30T14:05:29;18.50;97.00
51615;DHT22;37695;52.960;6.188;2023-04-30T14:07:55;18.70;97.10
51615;DHT22;37695;52.960;6.188;2023-04-30T14:10:20;18.60;96.70
51615;DHT22;37695;52.960;6.188;2023-04-30T14:12:46;18.30;96.70
51615;DHT22;37695;52.960;6.188;2023-04-30T14:15:11;18.10;97.10
51615;DHT22;37695;52.960;6.188;2023-04-30T14:17:37;17.90;97.20
51615;DHT22;37695;52.960;6.188;2023-04-30T14:20:03;17.80;97.20
51615;DHT22;37695;52.960;6.188;2023-04-30T14:22:29;17.70;97.30
51615;DHT22;37695;52.960;6.188;2023-04-30T14:24:58;17.70;97.80
51615;DHT22;37695;52.960;6.188;2023-04-30T14:27:24;17.70;97.70
51615;DHT22;37695;52.960;6.188;2023-04-30T14:29:50;17.80;97.20
51615;DHT22;37695;52.960;6.188;2023-04-30T14:32:16;17.70;96.80
51615;DHT22;37695;52.960;6.188;2023-04-30T14:34:41;17.60;96.80
51615;DHT22;37695;52.960;6.188;2023-04-30T14:37:07;17.80;96.70
51615;DHT22;37695;52.960;6.188;2023-04-30T14:39:33;18.00;96.40
51615;DHT22;37695;52.960;6.188;2023-04-30T14:41:58;18.20;97.20
51615;DHT22;37695;52.960;6.188;2023-04-30T14:44:24;18.50;96.90
51615;DHT22;37695;52.960;6.188;2023-04-30T14:46:50;18.60;96.20
51615;DHT22;37695;52.960;6.188;2023-04-30T14:49:16;18.70;96.00
51615;DHT22;37695;52.960;6.188;2023-04-30T14:51:42;18.80;96.50
51615;DHT22;37695;52.960;6.188;2023-04-30T14:54:08;18.90;96.70
51615;DHT22;37695;52.960;6.188;2023-04-30T14:56:33;18.90;96.30
51615;DHT22;37695;52.960;6.188;2023-04-30T14:58:59;18.80;95.60
51615;DHT22;37695;52.960;6.188;2023-04-30T15:01:25;18.70;95.30
51615;DHT22;37695;52.960;6.188;2023-04-30T15:03:50;18.70;95.20
51615;DHT22;37695;52.960;6.188;2023-04-30T15:06:17;18.70;95.50
51615;DHT22;37695;52.960;6.188;2023-04-30T15:08:43;18.80;95.60
51615;DHT22;37695;52.960;6.188;2023-04-30T15:11:09;18.70;95.60
51615;DHT22;37695;52.960;6.188;2023-04-30T15:13:36;18.90;95.90
51615;DHT22;37695;52.960;6.188;2023-04-30T15:16:01;18.90;95.80
51615;DHT22;37695;52.960;6.188;2023-04-30T15:18:27;19.00;95.50
51615;DHT22;37695;52.960;6.188;2023-04-30T15:20:53;19.10;95.90
51615;DHT22;37695;52.960;6.188;2023-04-30T15:23:18;19.10;95.90
51615;DHT22;37695;52.960;6.188;2023-04-30T15:25:45;19.10;95.70
51615;DHT22;37695;52.960;6.188;2023-04-30T15:28:11;19.30;95.70
51615;DHT22;37695;52.960;6.188;2023-04-30T15:30:36;19.20;95.30
51615;DHT22;37695;52.960;6.188;2023-04-30T15:33:02;19.20;95.50
51615;DHT22;37695;52.960;6.188;2023-04-30T15:35:28;19.20;95.60
51615;DHT22;37695;52.960;6.188;2023-04-30T15:37:54;19.40;95.50
51615;DHT22;37695;52.960;6.188;2023-04-30T15:40:19;19.50;95.20
51615;DHT22;37695;52.960;6.188;2023-04-30T15:42:45;19.60;94.90
51615;DHT22;37695;52.960;6.188;2023-04-30T15:45:10;19.60;95.10
51615;DHT22;37695;52.960;6.188;2023-04-30T15:47:37;20.10;95.00
51615;DHT22;37695;52.960;6.188;2023-04-30T15:50:03;19.50;94.90
51615;DHT22;37695;52.960;6.188;2023-04-30T15:52:28;19.50;95.40
51615;DHT22;37695;52.960;6.188;2023-04-30T15:54:54;19.60;95.60
51615;DHT22;37695;52.960;6.188;2023-04-30T15:57:19;19.40;95.40
51615;DHT22;37695;52.960;6.188;2023-04-30T15:59:46;19.20;95.40
51615;DHT22;37695;52.960;6.188;2023-04-30T16:02:11;19.20;95.70
51615;DHT22;37695;52.960;6.188;2023-04-30T16:04:37;19.40;96.00
51615;DHT22;37695;52.960;6.188;2023-04-30T16:07:02;19.60;95.90